createdAt,value
2017-07-02T00:01:41.324Z,100417
2017-07-02T00:04:09.538Z,100407
2017-07-02T00:06:37.785Z,100409
2017-07-02T00:09:05.983Z,100414
2017-07-02T00:11:34.219Z,100407
2017-07-02T00:14:02.417Z,100411
2017-07-02T00:16:30.593Z,100414
2017-07-02T00:18:58.816Z,100411
2017-07-02T00:21:27.018Z,100402
2017-07-02T00:23:55.217Z,100410
2017-07-02T00:26:23.437Z,100405
2017-07-02T00:28:51.657Z,100410
2017-07-02T00:31:19.871Z,100405
2017-07-02T00:33:48.823Z,100402
2017-07-02T00:36:17.026Z,100408
2017-07-02T00:38:45.972Z,100414
2017-07-02T00:41:14.179Z,100408
2017-07-02T00:43:42.368Z,100412
2017-07-02T00:46:11.350Z,100416
2017-07-02T00:48:40.333Z,100420
2017-07-02T00:51:08.568Z,100419
2017-07-02T00:53:36.764Z,100414
2017-07-02T00:56:04.983Z,100422
2017-07-02T00:58:33.947Z,100420
2017-07-02T01:01:02.119Z,100422
2017-07-02T01:03:30.354Z,100422
2017-07-02T01:05:58.554Z,100417
2017-07-02T01:08:26.825Z,100422
2017-07-02T01:10:55.056Z,100425
2017-07-02T01:13:23.307Z,100437
2017-07-02T01:15:51.489Z,100436
2017-07-02T01:18:19.685Z,100434
2017-07-02T01:20:47.908Z,100426
2017-07-02T01:23:16.095Z,100440
2017-07-02T01:25:44.339Z,100425
2017-07-02T01:28:12.538Z,100424
2017-07-02T01:30:41.552Z,100439
2017-07-02T01:33:10.525Z,100436
2017-07-02T01:35:38.745Z,100444
2017-07-02T01:38:06.968Z,100454
2017-07-02T01:40:35.197Z,100444
2017-07-02T01:43:03.373Z,100444
2017-07-02T01:45:31.621Z,100453
2017-07-02T01:48:00.613Z,100442
2017-07-02T01:50:29.583Z,100450
2017-07-02T01:52:58.519Z,100446
2017-07-02T01:55:26.716Z,100440
2017-07-02T01:57:54.935Z,100445
2017-07-02T02:00:23.091Z,100446
2017-07-02T02:03:17.015Z,100446
2017-07-02T02:05:45.373Z,100452
2017-07-02T02:08:13.564Z,100450
2017-07-02T02:10:41.776Z,100452
2017-07-02T02:13:10.018Z,100449
2017-07-02T02:15:38.193Z,100456
2017-07-02T02:18:06.408Z,100456
2017-07-02T02:20:34.612Z,100450
2017-07-02T02:23:02.850Z,100463
2017-07-02T02:25:31.020Z,100457
2017-07-02T02:27:59.252Z,100462
2017-07-02T02:30:27.458Z,100461
2017-07-02T02:32:55.632Z,100466
2017-07-02T02:35:23.882Z,100471
2017-07-02T02:37:52.080Z,100477
2017-07-02T02:40:20.283Z,100465
2017-07-02T02:42:49.240Z,100466
2017-07-02T02:45:17.438Z,100467
2017-07-02T02:47:46.426Z,100472
2017-07-02T02:50:14.602Z,100464
2017-07-02T02:52:42.844Z,100471
2017-07-02T02:55:11.046Z,100472
2017-07-02T02:57:39.297Z,100474
2017-07-02T03:00:07.507Z,100470
2017-07-02T03:02:36.479Z,100474
2017-07-02T03:05:04.700Z,100478
2017-07-02T03:07:32.892Z,100488
2017-07-02T03:10:01.098Z,100489
2017-07-02T03:12:29.308Z,100492
2017-07-02T03:14:58.302Z,100495
2017-07-02T03:17:27.295Z,100493
2017-07-02T03:19:56.263Z,100496
2017-07-02T03:22:25.254Z,100494
2017-07-02T03:24:54.254Z,100494
2017-07-02T03:27:23.185Z,100507
2017-07-02T03:29:51.467Z,100505
2017-07-02T03:32:19.803Z,100519
2017-07-02T03:34:48.789Z,100518
2017-07-02T03:37:17.775Z,100524
2017-07-02T03:39:46.708Z,100524
2017-07-02T03:42:14.958Z,100533
2017-07-02T03:44:43.919Z,100535
2017-07-02T03:47:12.121Z,100537
2017-07-02T03:49:40.342Z,100537
2017-07-02T03:52:08.531Z,100534
2017-07-02T03:54:36.812Z,100536
2017-07-02T03:57:05.044Z,100540
2017-07-02T03:59:33.292Z,100545
2017-07-02T04:02:02.260Z,100546
2017-07-02T04:04:30.480Z,100547
2017-07-02T04:06:58.803Z,100555
2017-07-02T04:09:27.025Z,100552
2017-07-02T04:11:55.310Z,100554
2017-07-02T04:14:23.506Z,100552
2017-07-02T04:16:51.756Z,100555
2017-07-02T04:19:20.012Z,100554
2017-07-02T04:21:48.242Z,100557
2017-07-02T04:24:16.459Z,100568
2017-07-02T04:26:45.445Z,100575
2017-07-02T04:29:14.470Z,100586
2017-07-02T04:31:42.714Z,100589
2017-07-02T04:34:11.727Z,100580
2017-07-02T04:36:40.005Z,100577
2017-07-02T04:39:08.217Z,100586
2017-07-02T04:41:37.190Z,100586
2017-07-02T04:44:05.403Z,100590
2017-07-02T04:46:34.358Z,100596
2017-07-02T04:49:02.736Z,100598
2017-07-02T04:51:31.151Z,100599
2017-07-02T04:54:00.113Z,100604
2017-07-02T04:56:28.425Z,100600
2017-07-02T04:58:57.390Z,100596
2017-07-02T05:01:25.600Z,100607
2017-07-02T05:03:53.806Z,100609
2017-07-02T05:06:22.033Z,100609
2017-07-02T05:08:51.014Z,100620
2017-07-02T05:11:19.321Z,100630
2017-07-02T05:13:47.518Z,100627
2017-07-02T05:16:15.737Z,100627
2017-07-02T05:18:43.954Z,100633
2017-07-02T05:21:12.149Z,100637
2017-07-02T05:23:40.380Z,100636
2017-07-02T05:26:09.375Z,100634
2017-07-02T05:28:38.356Z,100643
2017-07-02T05:31:07.391Z,100645
2017-07-02T05:33:35.638Z,100648
2017-07-02T05:36:03.838Z,100642
2017-07-02T05:38:32.032Z,100659
2017-07-02T05:41:00.260Z,100652
2017-07-02T05:43:28.452Z,100655
2017-07-02T05:45:56.763Z,100663
2017-07-02T05:48:24.963Z,100666
2017-07-02T05:50:53.215Z,100673
2017-07-02T05:53:21.485Z,100677
2017-07-02T05:55:49.684Z,100673
2017-07-02T05:58:18.704Z,100677
2017-07-02T06:00:46.896Z,100679
2017-07-02T06:03:15.116Z,100680
2017-07-02T06:05:44.074Z,100684
2017-07-02T06:08:12.296Z,100683
2017-07-02T06:10:41.280Z,100680
2017-07-02T06:13:10.268Z,100690
2017-07-02T06:15:38.456Z,100692
2017-07-02T06:18:07.485Z,100697
2017-07-02T06:20:35.684Z,100698
2017-07-02T06:23:03.906Z,100697
2017-07-02T06:25:32.982Z,100703
2017-07-02T06:28:01.942Z,100694
2017-07-02T06:30:30.164Z,100701
2017-07-02T06:32:58.357Z,100707
2017-07-02T06:35:26.591Z,100700
2017-07-02T06:37:54.783Z,100697
2017-07-02T06:40:23.750Z,100697
2017-07-02T06:42:51.973Z,100704
2017-07-02T06:45:20.171Z,100706
2017-07-02T06:47:48.408Z,100696
2017-07-02T06:50:16.663Z,100703
2017-07-02T06:52:44.895Z,100706
2017-07-02T06:55:13.119Z,100703
2017-07-02T06:57:42.141Z,100708
2017-07-02T07:00:10.344Z,100702
2017-07-02T07:02:38.595Z,100709
2017-07-02T07:05:06.803Z,100711
2017-07-02T07:07:34.999Z,100706
2017-07-02T07:10:04.015Z,100705
2017-07-02T07:12:32.228Z,100707
2017-07-02T07:15:00.500Z,100699
2017-07-02T07:17:28.692Z,100699
2017-07-02T07:19:56.892Z,100695
2017-07-02T07:22:25.082Z,100698
2017-07-02T07:24:53.326Z,100693
2017-07-02T07:27:22.280Z,100699
2017-07-02T07:29:50.550Z,100695
2017-07-02T07:32:18.837Z,100696
2017-07-02T07:34:47.029Z,100696
2017-07-02T07:37:15.255Z,100696
2017-07-02T07:39:43.468Z,100709
2017-07-02T07:42:11.685Z,100706
2017-07-02T07:44:39.938Z,100704
2017-07-02T07:47:08.946Z,100698
2017-07-02T07:49:37.908Z,100703
2017-07-02T07:52:07.718Z,100700
2017-07-02T07:54:35.951Z,100699
2017-07-02T07:57:04.191Z,100698
2017-07-02T07:59:33.184Z,100692
2017-07-02T08:02:02.220Z,100697
2017-07-02T08:04:30.446Z,100691
2017-07-02T08:06:58.628Z,100683
2017-07-02T08:09:26.856Z,100708
2017-07-02T08:11:55.076Z,100702
2017-07-02T08:14:23.319Z,100703
2017-07-02T08:16:51.523Z,100713
2017-07-02T08:19:20.534Z,100706
2017-07-02T08:21:48.815Z,100706
2017-07-02T08:24:16.984Z,100717
2017-07-02T08:26:45.254Z,100720
2017-07-02T08:29:13.496Z,100718
2017-07-02T08:31:41.850Z,100721
2017-07-02T08:34:10.026Z,100709
2017-07-02T08:36:38.352Z,100717
2017-07-02T08:39:06.537Z,100715
2017-07-02T08:41:34.799Z,100726
2017-07-02T08:44:03.025Z,100723
2017-07-02T08:46:31.237Z,100716
2017-07-02T08:48:59.630Z,100727
2017-07-02T08:51:27.836Z,100725
2017-07-02T08:53:56.074Z,100720
2017-07-02T08:56:24.270Z,100714
2017-07-02T08:58:52.508Z,100711
2017-07-02T09:01:20.714Z,100711
2017-07-02T09:03:48.954Z,100722
2017-07-02T09:06:17.899Z,100719
2017-07-02T09:08:46.175Z,100721
2017-07-02T09:11:14.374Z,100725
2017-07-02T09:13:42.577Z,100728
2017-07-02T09:16:10.801Z,100733
2017-07-02T09:18:39.311Z,100728
2017-07-02T09:21:08.475Z,100738
2017-07-02T09:23:36.709Z,100731
2017-07-02T09:26:04.879Z,100730
2017-07-02T09:28:33.111Z,100727
2017-07-02T09:31:01.321Z,100733
2017-07-02T09:33:29.507Z,100735
2017-07-02T09:35:57.765Z,100729
2017-07-02T09:38:27.163Z,100740
2017-07-02T09:40:55.404Z,100740
2017-07-02T09:43:23.587Z,100734
2017-07-02T09:45:52.584Z,100734
2017-07-02T09:48:20.829Z,100736
2017-07-02T09:50:49.315Z,100750
2017-07-02T09:53:17.692Z,100739
2017-07-02T09:55:45.915Z,100749
2017-07-02T09:58:14.160Z,100749
2017-07-02T10:00:42.423Z,100744
2017-07-02T10:03:10.802Z,100750
2017-07-02T10:05:38.950Z,100751
2017-07-02T10:08:07.298Z,100755
2017-07-02T10:10:35.470Z,100757
2017-07-02T10:13:03.684Z,100758
2017-07-02T10:15:32.065Z,100751
2017-07-02T10:18:00.374Z,100753
2017-07-02T10:20:29.364Z,100753
2017-07-02T10:22:58.328Z,100759
2017-07-02T10:25:26.687Z,100755
2017-07-02T10:27:54.950Z,100758
2017-07-02T10:30:23.155Z,100755
2017-07-02T10:32:51.430Z,100749
2017-07-02T10:35:19.636Z,100758
2017-07-02T10:37:48.734Z,100742
2017-07-02T10:40:16.985Z,100745
2017-07-02T10:42:45.241Z,100749
2017-07-02T10:45:13.462Z,100744
2017-07-02T10:47:41.684Z,100743
2017-07-02T10:50:09.896Z,100742
2017-07-02T10:52:38.913Z,100744
2017-07-02T10:55:07.123Z,100742
2017-07-02T10:57:35.456Z,100745
2017-07-02T11:00:03.695Z,100746
2017-07-02T11:02:31.875Z,100741
2017-07-02T11:05:00.883Z,100738
2017-07-02T11:07:29.866Z,100746
2017-07-02T11:09:58.864Z,100746
2017-07-02T11:12:27.867Z,100739
2017-07-02T11:14:56.196Z,100743
2017-07-02T11:17:24.444Z,100744
2017-07-02T11:19:52.663Z,100747
2017-07-02T11:22:20.936Z,100745
2017-07-02T11:24:49.384Z,100746
2017-07-02T11:27:18.435Z,100746
2017-07-02T11:29:47.429Z,100747
2017-07-02T11:32:16.399Z,100752
2017-07-02T11:34:44.646Z,100752
2017-07-02T11:37:12.847Z,100754
2017-07-02T11:39:41.827Z,100750
2017-07-02T11:42:10.031Z,100757
2017-07-02T11:44:38.977Z,100761
2017-07-02T11:47:07.383Z,100759
2017-07-02T11:49:36.420Z,100761
2017-07-02T11:52:04.632Z,100768
2017-07-02T11:54:32.840Z,100764
2017-07-02T11:57:01.212Z,100766
2017-07-02T11:59:30.170Z,100778
2017-07-02T12:01:58.772Z,100770
2017-07-02T12:04:27.069Z,100775
2017-07-02T12:06:55.289Z,100772
2017-07-02T12:09:23.518Z,100774
2017-07-02T12:11:51.745Z,100764
2017-07-02T12:14:19.962Z,100777
2017-07-02T12:16:48.936Z,100773
2017-07-02T12:19:17.915Z,100769
2017-07-02T12:21:46.451Z,100768
2017-07-02T12:24:14.624Z,100776
2017-07-02T12:26:42.872Z,100772
2017-07-02T12:29:11.848Z,100774
2017-07-02T12:31:40.810Z,100771
2017-07-02T12:34:09.025Z,100768
2017-07-02T12:36:37.969Z,100774
2017-07-02T12:39:06.180Z,100771
2017-07-02T12:41:35.127Z,100762
2017-07-02T12:44:03.337Z,100758
2017-07-02T12:46:31.487Z,100760
2017-07-02T12:48:59.719Z,100763
2017-07-02T12:51:28.106Z,100767
2017-07-02T12:53:56.291Z,100771
2017-07-02T12:56:24.530Z,107273
2017-07-02T12:58:52.730Z,107596
2017-07-02T13:01:20.961Z,111087
2017-07-02T13:03:49.130Z,102860
2017-07-02T13:06:18.148Z,108998
2017-07-02T13:08:46.403Z,103077
2017-07-02T13:11:15.384Z,107737
2017-07-02T13:13:58.048Z,112189
2017-07-02T13:16:27.103Z,108717
2017-07-02T13:18:55.332Z,103024
2017-07-02T13:21:23.613Z,105023
2017-07-02T13:23:51.832Z,104748
2017-07-02T13:26:20.809Z,104657
2017-07-02T13:28:49.188Z,102012
2017-07-02T13:31:17.552Z,115993
2017-07-02T13:33:46.577Z,103296
2017-07-02T13:36:15.609Z,116027
2017-07-02T13:38:43.834Z,110203
2017-07-02T13:41:12.811Z,104620
2017-07-02T13:43:41.073Z,104678
2017-07-02T13:46:09.276Z,102106
2017-07-02T13:48:38.316Z,102150
2017-07-02T13:51:06.726Z,102166
2017-07-02T13:53:34.922Z,102196
2017-07-02T13:56:03.139Z,102220
2017-07-02T13:58:32.825Z,102240
2017-07-02T14:01:01.296Z,102268
2017-07-02T14:03:30.113Z,102284
2017-07-02T14:05:58.524Z,102301
2017-07-02T14:08:28.044Z,102326
2017-07-02T14:10:57.231Z,102345
2017-07-02T14:13:25.754Z,102357
2017-07-02T14:15:54.445Z,102373
2017-07-02T14:18:23.521Z,102389
2017-07-02T14:20:51.756Z,102405
2017-07-02T14:23:20.315Z,102411
2017-07-02T14:25:48.781Z,102422
2017-07-02T14:28:16.988Z,102434
2017-07-02T14:30:45.209Z,102466
2017-07-02T14:33:13.422Z,102480
2017-07-02T14:35:41.635Z,102488
2017-07-02T14:38:09.839Z,102503
2017-07-02T14:40:38.417Z,102503
2017-07-02T14:43:06.624Z,102515
2017-07-02T14:45:34.796Z,102511
2017-07-02T14:48:03.053Z,102512
2017-07-02T14:50:32.649Z,102516
2017-07-02T14:53:01.419Z,102513
2017-07-02T15:01:30.545Z,102506
2017-07-02T15:03:59.551Z,102500
2017-07-02T15:06:27.773Z,102492
2017-07-02T15:08:56.151Z,102486
2017-07-02T15:11:24.500Z,102484
2017-07-02T15:13:56.300Z,102491
2017-07-02T15:16:25.841Z,102482
2017-07-02T15:18:54.117Z,102479
2017-07-02T15:21:22.377Z,102470
2017-07-02T15:23:51.362Z,102473
2017-07-02T15:26:20.310Z,102468
2017-07-02T15:28:48.637Z,102468
2017-07-02T15:31:17.755Z,102460
2017-07-02T15:33:45.987Z,102464
2017-07-02T15:36:14.460Z,102459
2017-07-02T15:38:42.868Z,102459
2017-07-02T15:41:11.143Z,102454
2017-07-02T15:43:39.464Z,102454
2017-07-02T15:46:07.765Z,102448
2017-07-02T15:48:36.259Z,102448
2017-07-02T15:51:05.206Z,102441
2017-07-02T15:53:33.532Z,102441
2017-07-02T15:56:02.757Z,102433
2017-07-02T15:58:31.035Z,102428
2017-07-02T16:00:59.222Z,102427
2017-07-02T16:03:27.500Z,102427
2017-07-02T16:05:55.923Z,102416
2017-07-02T16:08:24.941Z,102413
2017-07-02T16:10:54.264Z,102404
2017-07-02T16:13:22.512Z,102397
2017-07-02T16:15:50.754Z,102396
2017-07-02T16:18:19.292Z,102390
2017-07-02T16:20:47.744Z,102388
2017-07-02T16:23:16.357Z,102385
2017-07-02T16:25:44.660Z,102387
2017-07-02T16:28:14.639Z,102389
2017-07-02T16:30:43.007Z,102392
2017-07-02T16:33:11.211Z,102384
2017-07-02T16:35:39.410Z,102375
2017-07-02T16:38:07.848Z,102370
2017-07-02T16:40:38.396Z,102375
2017-07-02T16:43:08.307Z,102365
2017-07-02T16:45:36.616Z,102368
2017-07-02T16:48:07.068Z,102362
2017-07-02T16:50:37.682Z,102354
2017-07-02T16:53:07.673Z,102354
2017-07-02T16:55:38.301Z,102358
2017-07-02T16:58:07.796Z,102352
2017-07-02T17:00:36.900Z,102350
2017-07-02T17:03:05.142Z,102341
2017-07-02T17:05:33.350Z,102342
2017-07-02T17:08:01.521Z,102348
2017-07-02T17:10:29.833Z,102346
2017-07-02T17:12:58.216Z,102340
2017-07-02T17:15:26.665Z,102332
2017-07-02T17:17:54.915Z,102332
2017-07-02T17:20:23.314Z,102333
2017-07-02T17:22:52.160Z,102326
2017-07-02T17:25:20.502Z,102327
2017-07-02T17:27:49.571Z,102317
2017-07-02T17:30:17.755Z,102311
2017-07-02T17:32:46.275Z,102314
2017-07-02T17:35:14.465Z,102317
2017-07-02T17:37:45.043Z,102320
2017-07-02T17:40:13.415Z,102318
2017-07-02T17:42:43.201Z,102322
2017-07-02T17:45:13.078Z,102323
2017-07-02T17:47:42.486Z,102327
2017-07-02T17:50:11.528Z,102328
2017-07-02T17:52:40.134Z,102319
2017-07-02T17:55:11.364Z,102323
2017-07-02T17:57:41.069Z,102313
2017-07-02T18:00:11.923Z,102322
2017-07-02T18:02:42.130Z,102310
2017-07-02T18:05:10.713Z,102317
2017-07-02T18:07:40.985Z,102312
2017-07-02T18:10:11.734Z,102318
2017-07-02T18:12:41.845Z,102313
2017-07-02T18:15:11.544Z,102313
2017-07-02T18:17:41.531Z,102310
2017-07-02T18:20:09.838Z,102320
2017-07-02T18:22:39.682Z,102314
2017-07-02T18:25:08.039Z,102314
2017-07-02T18:27:36.534Z,102307
2017-07-02T18:30:04.738Z,102306
2017-07-02T18:32:34.143Z,102295
2017-07-02T18:35:04.642Z,102297
2017-07-02T18:37:56.157Z,102296
2017-07-02T18:40:25.266Z,102308
2017-07-02T18:42:54.654Z,102299
2017-07-02T18:45:23.351Z,102303
2017-07-02T18:47:52.816Z,102305
2017-07-02T18:50:21.103Z,102305
2017-07-02T18:52:49.455Z,102302
2017-07-02T18:55:18.057Z,102298
2017-07-02T18:57:46.809Z,102295
2017-07-02T19:00:15.045Z,102297
2017-07-02T19:02:43.470Z,102289
2017-07-02T19:05:11.811Z,102289
2017-07-02T19:07:40.355Z,102301
2017-07-02T19:10:09.878Z,102288
2017-07-02T19:12:38.351Z,102293
2017-07-02T19:15:06.879Z,102282
2017-07-02T19:17:35.368Z,102282
2017-07-02T19:20:03.590Z,102288
2017-07-02T19:22:31.835Z,102284
2017-07-02T19:25:00.032Z,102280
2017-07-02T19:27:28.589Z,102281
2017-07-02T19:29:56.817Z,102287
2017-07-02T19:32:26.237Z,102283
2017-07-02T19:34:54.519Z,102289
2017-07-02T19:37:23.056Z,102285
2017-07-02T19:39:51.615Z,102272
2017-07-02T19:42:20.137Z,102276
2017-07-02T19:44:48.427Z,102289
2017-07-02T19:47:17.657Z,102291
2017-07-02T19:49:45.967Z,102286
2017-07-02T19:52:14.337Z,102285
2017-07-02T19:54:42.876Z,102291
2017-07-02T19:57:11.315Z,102291
2017-07-02T19:59:40.360Z,102294
2017-07-02T20:02:09.285Z,102285
2017-07-02T20:10:26.376Z,102295
2017-07-02T20:12:56.504Z,102292
2017-07-02T20:15:46.416Z,102286
2017-07-02T20:18:15.512Z,102288
2017-07-02T20:20:43.837Z,102286
2017-07-02T20:23:16.105Z,102284
2017-07-02T20:25:47.256Z,102281
2017-07-02T20:31:31.774Z,102272
2017-07-02T20:34:00.785Z,102267
2017-07-02T20:36:29.435Z,102283
2017-07-02T20:38:58.484Z,102266
2017-07-02T20:41:27.012Z,102271
2017-07-02T20:43:55.483Z,102265
2017-07-02T20:46:24.137Z,102265
2017-07-02T20:49:01.029Z,102268
2017-07-02T20:51:34.249Z,102267
2017-07-02T20:54:02.811Z,102260
2017-07-02T20:56:31.177Z,102256
2017-07-02T20:59:00.306Z,102242
2017-07-02T21:04:28.808Z,102238
2017-07-02T21:06:57.746Z,102229
2017-07-02T21:09:25.974Z,102225
2017-07-02T21:11:54.912Z,102220
2017-07-02T21:14:23.145Z,102212
2017-07-02T21:16:51.363Z,102207
2017-07-02T21:19:20.623Z,102205
2017-07-02T21:21:48.879Z,102191
2017-07-02T21:24:17.912Z,102186
2017-07-02T21:26:46.169Z,102187
2017-07-02T21:29:14.338Z,102177
2017-07-02T21:31:42.568Z,102174
2017-07-02T21:34:10.786Z,102169
2017-07-02T21:36:38.979Z,102158
2017-07-02T21:39:07.184Z,102165
2017-07-02T21:41:35.413Z,102147
2017-07-02T21:44:03.612Z,102142
2017-07-02T21:46:32.035Z,102144
2017-07-02T21:49:00.256Z,102128
2017-07-02T21:51:28.491Z,102128
2017-07-02T21:53:56.970Z,102120
2017-07-02T21:56:25.991Z,102114
2017-07-02T21:58:54.165Z,102112
2017-07-02T22:01:22.350Z,102104
2017-07-02T22:03:50.668Z,102094
2017-07-02T22:06:19.096Z,102089
2017-07-02T22:08:47.274Z,102075
2017-07-02T22:11:15.871Z,102071
2017-07-02T22:13:44.099Z,102069
2017-07-02T22:16:12.287Z,102052
2017-07-02T22:18:40.536Z,102050
2017-07-02T22:21:08.727Z,102041
2017-07-02T22:23:36.910Z,102027
2017-07-02T22:26:05.210Z,102019
2017-07-02T22:28:33.440Z,102009
2017-07-02T22:31:02.385Z,102005
2017-07-02T22:33:30.590Z,101994
2017-07-02T22:35:58.770Z,101982
2017-07-02T22:38:27.737Z,101973
2017-07-02T22:40:55.944Z,101965
2017-07-02T22:43:24.891Z,101956
2017-07-02T22:45:53.106Z,101950
2017-07-02T22:48:22.066Z,101934
2017-07-02T22:50:50.220Z,101925
2017-07-02T22:53:18.807Z,101915
2017-07-02T22:55:47.149Z,101904
2017-07-02T22:58:15.421Z,101894
2017-07-02T23:00:43.612Z,101892
2017-07-02T23:03:11.835Z,101882
2017-07-02T23:05:40.788Z,101873
2017-07-02T23:08:09.631Z,101865
2017-07-02T23:10:38.734Z,101856
2017-07-02T23:13:07.661Z,101840
2017-07-02T23:15:35.848Z,101834
2017-07-02T23:18:04.052Z,101833
2017-07-02T23:20:32.238Z,101811
2017-07-02T23:23:01.216Z,101812
2017-07-02T23:25:29.396Z,101802
2017-07-02T23:27:58.460Z,101793
2017-07-02T23:30:26.683Z,101783
2017-07-02T23:32:55.625Z,101760
2017-07-02T23:35:23.827Z,101762
2017-07-02T23:37:52.069Z,101747
2017-07-02T23:40:20.221Z,101744
2017-07-02T23:42:48.459Z,101740
2017-07-02T23:45:17.535Z,101724
2017-07-02T23:47:45.711Z,101718
2017-07-02T23:50:14.682Z,101703
2017-07-02T23:52:42.865Z,101706
2017-07-02T23:55:11.028Z,101690
2017-07-02T23:57:39.269Z,101684
